If you wish to contribute or participate in the discussions about articles you are invited to join SKYbrary as a registered user

 Actions

Riga International Airport

From SKYbrary Wiki

EVRA
Airport
ICAO: EVRA – IATA: RIX
Summary
Name Riga International Airport
Region Europe
Territory Latvia LV.gif
Location Skulte, Mārupe Municipality
Serving Riga
Elevation 10.973 m <br />36 ft10.973 m <br />
Coordinates 56° 55' 25.00" N, 23° 58' 16.00" E
Runways
Designator Length Width Surface ROPS
18/36 3200 m10,498.688 ft <br /> 45 m147.638 ft <br /> ASP yes/yes


METAR
Observation EVRA 231450Z 25003KT 210V300 9999 SCT044 28/18 Q1016 NOSIG
Station Riga International Airport
Date/Time 23 June 2021 14:50:00
Wind direction 250°
Wind speed 03 kts
Lowest cloud amount scattered clouds
Temperature 28°C
Dew point 18°C
Humidity 54%
QNH 1016 hPa
Weather condition n/a

International airport serving capital of Latvia.

Climatology

Humid Continental climate (Köppen climate classification Dfb)

Maps

Terrain

Loading map...

Airport Layout

Loading map...


Accidents & Serious Incidents at or in vicinity of EVRA

None on SKYbrary